DHK052 EBBR-ZSPD
Flight info
| Callsign | DHK052 |
|---|---|
| Flight time | N/A |
| Altitude | 19000 |
| Route | LNO L607 ARCKY/N0449F230 L607 ROPUV/N0494F290 L607 EMGOD DCT BOMBI DCT KOMIB L984 SULUS Z650 VEMUT DCT BUDEX DCT PESAT DCT TEKNO DCT TEGRI DCT DINRO N743 UDROS UM859 OSDIP/N0492F310 UM859 KARDE UL851 TBN UG261 NOLGA DCT BARAD M747 SUBUT T916 BALUN/K0915F310 T916 TUROK/K0902F330 T916 PIGAL M610 RULAD/K0902S1010 A343 POSOT B215 FKG W188 LIKMI W270 DKO W69 EGILO/K0887S1070 W69 HUR B339 SOTMU/K0889S1040 W98 ELKUR W40 DOXAB/K0891S1070 W40 YQG/K0893S1040 W142 DALIM/K0893S1070 A593 DPX A470 DALNU W166 ZJ W167 SASAN R343 EKIMU |
| Aircraft | B77L/H-SDE1E2E3FGHIJ2J3J4J5M1RWXY/LB1D1 |
Departure
| Time | N/A |
|---|---|
| Airport | Brussels Airport (EBBR) |
Arrival
| Time | 2026-05-05 12:23 |
|---|---|
| Airport | Shanghai Pudong International Airport (ZSPD) |
| Time | Latitude | Longitude | Altitude | Speed | Heading |
|---|---|---|---|---|---|
| 2026-05-05 12:02 | 31.70856 | 120.11369 | 24691 ft | 457 kts | 124° |
| 2026-05-05 12:02 | 31.69071 | 120.14441 | 24234 ft | 453 kts | 124° |
| 2026-05-05 12:02 | 31.67298 | 120.17490 | 23754 ft | 450 kts | 124° |
| 2026-05-05 12:02 | 31.65564 | 120.20470 | 23236 ft | 447 kts | 124° |
| 2026-05-05 12:03 | 31.63815 | 120.23474 | 22700 ft | 443 kts | 124° |
| 2026-05-05 12:03 | 31.62084 | 120.26443 | 22212 ft | 439 kts | 124° |
| 2026-05-05 12:03 | 31.60373 | 120.29404 | 21740 ft | 435 kts | 123° |
| 2026-05-05 12:03 | 31.58893 | 120.32476 | 21283 ft | 431 kts | 116° |
| 2026-05-05 12:04 | 31.57699 | 120.35690 | 20819 ft | 427 kts | 109° |
| 2026-05-05 12:04 | 31.56735 | 120.38982 | 20387 ft | 424 kts | 108° |
| 2026-05-05 12:04 | 31.55789 | 120.42246 | 19959 ft | 423 kts | 108° |
| 2026-05-05 12:04 | 31.54831 | 120.45531 | 19512 ft | 428 kts | 109° |
| 2026-05-05 12:05 | 31.53854 | 120.48858 | 19055 ft | 435 kts | 109° |
| 2026-05-05 12:05 | 31.52861 | 120.52221 | 18574 ft | 435 kts | 109° |
| 2026-05-05 12:05 | 31.51869 | 120.55560 | 18060 ft | 433 kts | 109° |
| 2026-05-05 12:05 | 31.50882 | 120.58873 | 17551 ft | 428 kts | 109° |
| 2026-05-05 12:06 | 31.49903 | 120.62151 | 17062 ft | 424 kts | 109° |
| 2026-05-05 12:06 | 31.48935 | 120.65390 | 16594 ft | 419 kts | 109° |
| 2026-05-05 12:06 | 31.47976 | 120.68594 | 16132 ft | 415 kts | 109° |
| 2026-05-05 12:06 | 31.47038 | 120.71726 | 15660 ft | 411 kts | 109° |
| 2026-05-05 12:07 | 31.46095 | 120.74869 | 15221 ft | 407 kts | 109° |
| 2026-05-05 12:07 | 31.45161 | 120.77983 | 14767 ft | 403 kts | 109° |
| 2026-05-05 12:07 | 31.44235 | 120.81067 | 14312 ft | 399 kts | 109° |
| 2026-05-05 12:07 | 31.43318 | 120.84117 | 13869 ft | 396 kts | 109° |
| 2026-05-05 12:08 | 31.42406 | 120.87148 | 13351 ft | 393 kts | 109° |
| 2026-05-05 12:08 | 31.41497 | 120.90167 | 12858 ft | 389 kts | 109° |
| 2026-05-05 12:08 | 31.40602 | 120.93137 | 12414 ft | 385 kts | 109° |
| 2026-05-05 12:08 | 31.39714 | 120.96079 | 11965 ft | 381 kts | 109° |
| 2026-05-05 12:09 | 31.38838 | 120.98982 | 11520 ft | 377 kts | 109° |
| 2026-05-05 12:09 | 31.37969 | 121.01857 | 11090 ft | 373 kts | 109° |
| 2026-05-05 12:09 | 31.37127 | 121.04640 | 10933 ft | 361 kts | 109° |
| 2026-05-05 12:09 | 31.36300 | 121.07370 | 10762 ft | 350 kts | 110° |
| 2026-05-05 12:10 | 31.35584 | 121.09993 | 10587 ft | 324 kts | 101° |
| 2026-05-05 12:10 | 31.35362 | 121.12500 | 10473 ft | 298 kts | 89° |
| 2026-05-05 12:10 | 31.35494 | 121.14867 | 10362 ft | 286 kts | 83° |
| 2026-05-05 12:10 | 31.35742 | 121.17128 | 10240 ft | 275 kts | 82° |
| 2026-05-05 12:11 | 31.36005 | 121.19344 | 10156 ft | 278 kts | 82° |
| 2026-05-05 12:11 | 31.36272 | 121.21620 | 10066 ft | 289 kts | 82° |
| 2026-05-05 12:11 | 31.36544 | 121.23996 | 9771 ft | 299 kts | 82° |
| 2026-05-05 12:11 | 31.36813 | 121.26417 | 9430 ft | 299 kts | 83° |
| 2026-05-05 12:12 | 31.37069 | 121.28765 | 9068 ft | 284 kts | 83° |
| 2026-05-05 12:12 | 31.37313 | 121.31045 | 8764 ft | 279 kts | 83° |
| 2026-05-05 12:12 | 31.37551 | 121.33279 | 8459 ft | 274 kts | 83° |
| 2026-05-05 12:12 | 31.37782 | 121.35471 | 8162 ft | 269 kts | 83° |
| 2026-05-05 12:13 | 31.38003 | 121.37577 | 7871 ft | 265 kts | 84° |
| 2026-05-05 12:13 | 31.38227 | 121.39727 | 7601 ft | 268 kts | 84° |
| 2026-05-05 12:13 | 31.38455 | 121.41911 | 7321 ft | 273 kts | 84° |
| 2026-05-05 12:13 | 31.38685 | 121.44128 | 7012 ft | 274 kts | 84° |
| 2026-05-05 12:14 | 31.38915 | 121.46331 | 6690 ft | 270 kts | 85° |
| 2026-05-05 12:14 | 31.39140 | 121.48496 | 6395 ft | 265 kts | 85° |
| 2026-05-05 12:14 | 31.39359 | 121.50617 | 6110 ft | 259 kts | 84° |
| 2026-05-05 12:14 | 31.39571 | 121.52659 | 5980 ft | 246 kts | 85° |
| 2026-05-05 12:15 | 31.39771 | 121.54588 | 5855 ft | 234 kts | 85° |
| 2026-05-05 12:15 | 31.39966 | 121.56486 | 5597 ft | 235 kts | 85° |
| 2026-05-05 12:15 | 31.40221 | 121.58350 | 5521 ft | 228 kts | 79° |
| 2026-05-05 12:15 | 31.40572 | 121.60185 | 5265 ft | 234 kts | 79° |
| 2026-05-05 12:16 | 31.40933 | 121.62051 | 4979 ft | 235 kts | 80° |
| 2026-05-05 12:16 | 31.41289 | 121.63916 | 4697 ft | 232 kts | 81° |
| 2026-05-05 12:16 | 31.41628 | 121.65717 | 4407 ft | 226 kts | 82° |
| 2026-05-05 12:16 | 31.41587 | 121.67473 | 4104 ft | 211 kts | 116° |
| 2026-05-05 12:17 | 31.40688 | 121.68792 | 3906 ft | 211 kts | 151° |
| 2026-05-05 12:17 | 31.39370 | 121.69561 | 3681 ft | 213 kts | 157° |
| 2026-05-05 12:17 | 31.38011 | 121.70231 | 3400 ft | 208 kts | 161° |
| 2026-05-05 12:17 | 31.36667 | 121.70790 | 3122 ft | 201 kts | 162° |
| 2026-05-05 12:18 | 31.35371 | 121.71293 | 3074 ft | 194 kts | 163° |
| 2026-05-05 12:18 | 31.34112 | 121.71774 | 3081 ft | 185 kts | 163° |
| 2026-05-05 12:18 | 31.32923 | 121.72227 | 2985 ft | 174 kts | 163° |
| 2026-05-05 12:18 | 31.31777 | 121.72662 | 2991 ft | 173 kts | 163° |
| 2026-05-05 12:19 | 31.30633 | 121.73096 | 2940 ft | 176 kts | 164° |
| 2026-05-05 12:19 | 31.29437 | 121.73548 | 2706 ft | 183 kts | 164° |
| 2026-05-05 12:19 | 31.28234 | 121.74006 | 2453 ft | 180 kts | 164° |
| 2026-05-05 12:19 | 31.27105 | 121.74436 | 2269 ft | 166 kts | 163° |
| 2026-05-05 12:20 | 31.26003 | 121.74854 | 2031 ft | 167 kts | 163° |
| 2026-05-05 12:20 | 31.24933 | 121.75261 | 1795 ft | 153 kts | 164° |
| 2026-05-05 12:20 | 31.23983 | 121.75621 | 1597 ft | 136 kts | 163° |
| 2026-05-05 12:20 | 31.23093 | 121.75959 | 1413 ft | 134 kts | 164° |
| 2026-05-05 12:21 | 31.22199 | 121.76297 | 1250 ft | 136 kts | 163° |
| 2026-05-05 12:21 | 31.21298 | 121.76640 | 1054 ft | 136 kts | 163° |
| 2026-05-05 12:21 | 31.20403 | 121.76979 | 890 ft | 135 kts | 162° |
| 2026-05-05 12:21 | 31.19482 | 121.77329 | 719 ft | 143 kts | 162° |
| 2026-05-05 12:22 | 31.18531 | 121.77679 | 578 ft | 141 kts | 163° |
| 2026-05-05 12:22 | 31.17617 | 121.78029 | 401 ft | 139 kts | 161° |
| 2026-05-05 12:22 | 31.16685 | 121.78390 | 195 ft | 145 kts | 162° |
| 2026-05-05 12:22 | 31.15710 | 121.78754 | 42 ft | 142 kts | 162° |
| 2026-05-05 12:23 | 31.14875 | 121.79070 | 30 ft | 108 kts | 161° |
| 2026-05-05 12:23 | 31.14338 | 121.79274 | 32 ft | 54 kts | 162° |
| 2026-05-05 12:23 | 31.14118 | 121.79357 | 27 ft | 25 kts | 161° |
| 2026-05-05 12:23 | 31.13952 | 121.79419 | 30 ft | 25 kts | 163° |
| 2026-05-05 12:24 | 31.13828 | 121.79498 | 27 ft | 20 kts | 140° |
| 2026-05-05 12:24 | 31.13744 | 121.79596 | 27 ft | 12 kts | 133° |
| 2026-05-05 12:24 | 31.13710 | 121.79671 | 27 ft | 11 kts | 89° |
| 2026-05-05 12:24 | 31.13728 | 121.79754 | 27 ft | 11 kts | 73° |
| 2026-05-05 12:25 | 31.13756 | 121.79831 | 27 ft | 10 kts | 71° |
| 2026-05-05 12:25 | 31.13774 | 121.79913 | 27 ft | 11 kts | 75° |
| 2026-05-05 12:25 | 31.13801 | 121.79992 | 27 ft | 11 kts | 49° |
| 2026-05-05 12:25 | 31.13870 | 121.80006 | 27 ft | 11 kts | 348° |
| 2026-05-05 12:26 | 31.13941 | 121.79979 | 27 ft | 11 kts | 342° |
| 2026-05-05 12:26 | 31.14011 | 121.79953 | 27 ft | 11 kts | 342° |
| 2026-05-05 12:26 | 31.14082 | 121.79926 | 27 ft | 11 kts | 342° |
| 2026-05-05 12:26 | 31.14152 | 121.79900 | 27 ft | 11 kts | 342° |
| 2026-05-05 12:27 | 31.14222 | 121.79873 | 27 ft | 11 kts | 342° |
| 2026-05-05 12:27 | 31.14292 | 121.79847 | 27 ft | 11 kts | 342° |
| 2026-05-05 12:27 | 31.14363 | 121.79820 | 27 ft | 11 kts | 342° |
| 2026-05-05 12:27 | 31.14433 | 121.79794 | 27 ft | 11 kts | 342° |
| 2026-05-05 12:28 | 31.14504 | 121.79767 | 27 ft | 11 kts | 342° |
| 2026-05-05 12:28 | 31.14587 | 121.79735 | 27 ft | 15 kts | 342° |
| 2026-05-05 12:28 | 31.14685 | 121.79699 | 27 ft | 15 kts | 342° |
| 2026-05-05 12:28 | 31.14783 | 121.79662 | 27 ft | 15 kts | 342° |
| 2026-05-05 12:29 | 31.14880 | 121.79625 | 27 ft | 15 kts | 342° |
| 2026-05-05 12:29 | 31.14945 | 121.79601 | 27 ft | 15 kts | 342° |
| 2026-05-05 12:29 | 31.15043 | 121.79564 | 27 ft | 15 kts | 342° |
| 2026-05-05 12:29 | 31.15136 | 121.79528 | 27 ft | 10 kts | 342° |
| 2026-05-05 12:30 | 31.15204 | 121.79503 | 27 ft | 10 kts | 342° |
| 2026-05-05 12:30 | 31.15272 | 121.79476 | 27 ft | 10 kts | 341° |
| 2026-05-05 12:30 | 31.15340 | 121.79449 | 27 ft | 10 kts | 341° |
| 2026-05-05 12:30 | 31.15378 | 121.79402 | 27 ft | 8 kts | 270° |
| 2026-05-05 12:31 | 31.15366 | 121.79356 | 27 ft | 3 kts | 248° |
| 2026-05-05 12:31 | 31.15361 | 121.79334 | 27 ft | 3 kts | 252° |